Timeline UpdatesTrip UpdatesNews PostsPvt Posts♥♥Travel TipsAdmin PostsConv PostsFollowed PostsChat RequestsBlog PostsPNR Posts

Disclaimer
Search
 
 
Tue Oct 21, 2014 20:42:24 ISTHomeTrainsΣChainsAtlasPNRForumGalleryNewsFAQTripsMembersLoginFeedback
No Recent News for this Train
Other Trains in the News **new
Latest...
.
Fri Jun 20, 2014 (04:04PM)
⇐ Return Journey: Train# 12522

12521/Rapti Sagar SF Express

NO Time-Table Change.
Sep 01 2014 (9:44PM)
Change Departure Station:
Change Arrival Station:
Post a Train Travel TipPost a Train Travel Tip **new
Post a Comment/Question/Picture/VideoPost a Comment/Question/Picture/Video
Pantry/Catering
✓ Pantry Car Avbl
✓ Catering Avbl
Loco/Rake Reversals
MAS/Chennai Central (12); SRR/Shoranur Junction (7); LJN/Lucknow Junction NER (6);
RSA - Rake Sharing
NO RSA.
Rake/Coach Composition
LOCO-SLR-GS-A1-B1-B2-B3-PC-S1-S2-S3-S4-S5-S6-S7-S8-S9-S10-S11-S12-S13-S14-GS-GS-SLR
Loco
Loco Link: BJU to JHS - GD WDM 3A JHS to MAS...
Read more...
- ET WAP 4 MAS to ERS - AJJ WAM 4
News    PNR    Forum    Time-Table    Availability    Fare Chart    Map    Arr/Dep History    Trips    Gallery    ΣChains    X/O    Timeline    
Travel Time: 4h 55m    2 halts    Distance: 334 km    Avg Speed: 67 km/hr
Type: SuperFast
Zone: ECR/East Central
Departs @ 23:45 (Avg 2h 48m late)
Platform# 8
   W   
Chennai Central/MAS 
Arrives @ 04:40 +1 night (Avg 2h 40m late)
Platform# ???
    T  
Salem Junction/SA 

2 halts. 71 intermediate Stations between Chennai Central and Salem Junction

Show ALL intermediate Stations  

#TrkCodeStation NameX/OArrivesAvgDepartsAvgHaltPFDay#KmSpeedElevZoneAddress
1/==/BJUBarauni Junction (9)  -23:00+051-2735.35949mECRBegusarai, Bihar
2/==/SPJSamastipur Junction (9)  23:51+2223:56+225m--1-2684.86455mECRSamastipur, Bihar
3/==/MFPMuzaffarpur Junction (6)  00:45+4000:50+425m42-2632.66757mECRMuzaffarpur, Bihar
4/-=/HJPHajipur Junction (3)  01:38+1:1501:39+1:191m22-2578.83355mECR06224-272230, Bihar
5/==/SEESonpur Junction (4)X  01:49+1:2201:52+1:243m--2-2573.34856mECRSaran, Bihar
6/==/CPRChhapra Junction (6)  03:00+1:3503:05+1:355m--2-2519.28258mNERDistt: Saran, Bihar
7%==%SVSiwan Junction (4)X  03:50+1:4403:55+1:445m--2-2458.08470mNERSiwan, Bihar
8%==%BTTBhatni Junction (5)  04:30+1:5004:35+1:495m--2-2409.36673mNERDeoria, Uttar Pradesh
9%==%DEOSDeoria Sadar (3)  04:54+1:5304:55+1:571m--2-2388.63579mNERDeoria- 274001, Uttar Pradesh
10%==%GKPGorakhpur Junction (10)X  06:20+1:4506:35+1:4615m92-2339.45284mNERGorakhpur 273001, Uttar Pradesh
11%==%KLDKhalilabad (3)  07:14+1:5007:15+1:511m32-2305.57186mNERKhalilabad- 272175, Uttar Pradesh
12%==%BSTBasti (4)X  07:40+1:5207:45+1:525m12-2276.08190mNERBasti 272001, Uttar Pradesh
13%==%MURMankapur Junction (5)  08:30+1:5108:32+1:512m12-2215.460104mNERDistrict Gonda, Uttar Pradesh
14%==/GDGonda Junction (3)  09:00+1:5209:05+1:535m12-2187.565110mNERGonda 271001, Uttar Pradesh
15/==/BBKBarabanki Junction (4)  10:27+2:0510:29+2:052m12-2098.253122mNRPin-225001, Uttar Pradesh
16/--/BNZBadshahnagar (2)  10:57+2:0810:58+2:091m12-2073.621116mNERLucknow, Uttar Pradesh
17/--/LJNLucknow Junction NER (6)X11:30+1:4911:50+1:4720m12-2062.663126mNERLucknow, Uttar Pradesh
18/==/ONUnnao Junction (5)X  12:41+2:1912:42+2:201m52-2008.730129mNRUnnao, Uttar Pradesh
19/==/CNBKanpur Central (10)  13:17+2:2213:22+2:305m52-1991.363128mNCRKANPUR-208 001, Uttar Pradesh
20/--/PHNPokhrayan (2)  14:18+2:5114:19+2:531m12-1932.964133mNCRPukhrayan, Uttar Pradesh
21/--/ORAIOrai (3)  15:04+2:5515:05+2:591m--2-1885.070139mNCROrai(05162-252206), Uttar Pradesh
22/--/JHSJhansi Junction (7)16:43+3:1216:55+3:3312m--2-1771.186259mNCRJhansi, Uttar Pradesh
23/==/LARLalitpur (3)  17:58+3:3817:59+3:411m12-1680.862373mNCRLalitpur, Uttar Pradesh
24/==/BPLBhopal Junction (6)X  21:15+3:3721:20+3:405m12-1479.355497mWCRBhopal, Madhya Pradesh
25/==/ETItarsi Junction (7)  23:00+3:2723:05+3:315m--2-1387.567329mWCRItarsi 461111, Madhya Pradesh
26/==/GDYAGhoradongri (3)  00:08+4:0300:09+4:061m--3-1317.248 CRBetul, Madhya Pradesh
27/==/BZUBetul (3)X  00:54+4:1600:55+4:181m--3-1281.257644mCRBetul, Madhya Pradesh
28/==/AMLAAmla Junction (5)X  01:19+4:1501:22+4:143m--3-1258.368733mCRAmla Distt. Betul, Madhya Pradesh
29/==/PARPandhurna (2)  02:18+4:2602:19+4:271m--3-1194.769481mCRDistt: Chhindwara, Madhya Pradesh
30/==/NGPNagpur Junction (8)  03:50+4:2104:00+4:2510m23-1090.478314mCRNagpur 440001, Maharashtra
31/==/SEGMSewagram Junction (5)  04:59+4:4105:00+4:421m--3-1014.151279mCRWardha, Maharashtra
32/==/HGTHinganghat (3)  05:39+4:2905:40+4:301m--3-981.067228mCRHinganghat, Maharashtra
33/==/CDChandrapur Maharashtra (3)X  06:57+4:1806:58+4:181m--3-895.612194mCRChandrapur 442401, Maharashtra
34/==/BPQBalharshah Junction (5)XO  08:05+3:3508:35+3:1630m--3-881.884188mCRBallarpur. Ph : 07172 - 240341, Maharashtra
35/==/SKZRSirpur Kaghaznagar (3)  09:25+3:2709:26+3:271m23-812.062181mSCRAdilabad Dist., Telangana
36/==/BPABellampalli (3)  10:03+3:2610:04+3:261m23-773.679205mSCRTel:.08735 223298, Telangana
37/==/MCIManchiryal (3)  10:19+3:3010:20+3:301m23-753.792159mSCRAdilabad Dist., Telangana
38/==/RDMRamagundam (3)X  10:29+3:3810:30+3:381m23-740.065170mSCRKarimnagar Dist. Ph : 08728 - 255237, Telangana
39/==/WLWarangal (3)  12:03+3:4812:05+3:502m13-638.871271mSCRWarangal., Telangana
40/==/KMTKhammam (2)  13:36+3:0913:37+3:091m13-531.245118mSCRKhammam 507001, Telangana
41/==/BZAVijayawada Junction (10)X  15:50+3:0616:05+3:0515m73-430.97324mSCRVijayawada 520001, Andhra Pradesh
42/==/CLXChirala (4)O  17:18+3:2417:19+3:251m--3-341.9678mSCRChirala, Andhra Pradesh
43/==/OGLOngole (3)XO  18:03+3:2218:04+3:241m33-292.69312mSCROngole, Andhra Pradesh
44/==/NLRNellore (4)O  19:19+2:1619:20+2:161m33-175.82521mSCRNellore, Andhra Pradesh
45/==/GDRGudur Junction (3)  20:53+2:4220:55+2:422m13-137.45719mSCRGudur, Andhra Pradesh
46/==/MASChennai Central (12)»X23:20+2:4823:45+2:4825m830.0659mSRChennai 600003, Tamil Nadu
47/==/KPDKatpadi Junction (5)X  01:45+3:0501:50+3:015m14129.465213mSRVellore 632007, Tamil Nadu
48/==/JTJJolarpettai Junction (5)  03:08+2:4703:10+2:482m--4213.380405mSRJolarpettai, Tamil Nadu
49/==/SASalem Junction (6)•X  04:40+2:4004:45+2:395m--4333.549283mSRSalem, Tamil Nadu
50/==/EDErode Junction (4)  06:00+2:4106:10+2:5210m24394.979175mSRErode ph.no: 0424-2256111, Tamil Nadu
51/==/TUPTiruppur (2)X  06:48+2:5306:50+2:532m14445.167305mSRTiruppur. Ph:0421-2200450, Tamil Nadu
52/==/CBECoimbatore Main Junction (6)  07:35+2:3207:40+2:325m14495.641416mSRCoimbatore 641001, Tamil Nadu
53/==/PGTPalakkad Junction (4)XO  09:00+2:1509:05+2:165m--4550.910084mSRPalghat Tel: 0491 2555231, Kerala
54/==/OTPOttappalam (2)  09:24+2:1509:25+2:171m--4582.61730mSROttapalam, Kerala
55/==/SRRShoranur Junction (7)10:10+2:4810:20+2:5810m54595.54726mSRShoranur ph.no 0466-2222913, Kerala
56/==/WKIWadakkanchery (2)X  10:41+2:3910:42+2:401m14612.05540mSRWadackanchery, Kerala
57/==/TCRThrissur (4)  11:00+2:4311:03+2:443m14628.4686mSRThrissur Tel: 0487 2423150, Kerala
58/==/IJKIrinjalakkuda (2)  11:24+2:4611:25+2:461m--4652.25518mSRKalletumkara, Kerala
59/==/CKIChalakkudy (3)X  11:32+2:3811:33+2:381m14658.6659mSRPh: 0480- 2701368, Kerala
60/==/AFKAngamaly for Kalady (3)  11:47+2:5911:48+2:591m--4673.84616mSRPhone: 0484-2452340, Kerala
61/==/AWYAluva (3)X  12:00+2:2212:02+2:222m14683.03612mSRPh: 0484-2624141, Kerala
62/==/ERNErnakulam Town (North) (2)  12:30+2:4412:32+2:452m24699.969mSRTel: 0484 2395198, Kerala
63/=-/ERSErnakulam Junction (South) (6)  13:00+2:38---4702.4-3mSRErnakulam 682016, Kerala
Scroll to Top
Scroll to Bottom